Time;durP1;ratioP1;P1;durP2;ratioP2;P2;SDS_P1;SDS_P2;PMS_P1;PMS_P2;Temp;Humidity;BMP_temperature;BMP_pressure;BME280_temperature;BME280_humidity;BME280_pressure;Samples;Min_cycle;Max_cycle;Signal;HPM_P1;HPM_P2
2022/03/25 00:02:15;;;;;;;46.83;24.35;;;10.90;20.90;;;;;;5002779;28;20553;-72
2022/03/25 00:04:41;;;;;;;40.30;21.73;;;11.10;19.80;;;;;;5013538;28;20252;-73
2022/03/25 00:07:07;;;;;;;47.00;23.47;;;11.20;20.00;;;;;;4997653;28;20202;-72
2022/03/25 00:09:33;;;;;;;44.95;23.85;;;10.90;20.60;;;;;;4994083;28;20205;-72
2022/03/25 00:11:59;;;;;;;47.77;22.60;;;10.50;22.60;;;;;;4995269;28;20203;-71
2022/03/25 00:14:24;;;;;;;46.67;25.07;;;10.20;23.00;;;;;;4994015;28;20413;-72
2022/03/25 00:16:50;;;;;;;49.37;25.73;;;10.50;21.70;;;;;;5000967;28;20207;-72
2022/03/25 00:19:16;;;;;;;54.23;23.90;;;10.40;22.00;;;;;;5001360;28;20614;-72
2022/03/25 00:21:42;;;;;;;46.00;24.73;;;10.80;21.00;;;;;;4993924;28;20174;-72
2022/03/25 00:24:08;;;;;;;50.33;24.40;;;10.30;22.90;;;;;;4993548;28;20641;-72
2022/03/25 00:26:34;;;;;;;43.83;23.92;;;10.60;21.30;;;;;;4994112;28;20285;-72
2022/03/25 00:28:59;;;;;;;45.33;24.23;;;10.80;20.90;;;;;;5010513;28;20260;-71
2022/03/25 00:31:25;;;;;;;48.23;25.40;;;10.90;20.40;;;;;;5013288;28;20182;-73
2022/03/25 00:33:51;;;;;;;47.20;25.30;;;11.00;20.00;;;;;;5012123;28;20277;-72
2022/03/25 00:36:23;;;;;;;39.33;24.13;;;10.90;20.80;;;;;;5012755;28;20253;-72
2022/03/25 00:38:48;;;;;;;57.78;25.15;;;10.30;23.20;;;;;;5009427;28;20243;-72
2022/03/25 00:41:16;;;;;;;43.10;24.23;;;10.20;23.50;;;;;;4994682;28;20597;-72
2022/03/25 00:43:43;;;;;;;47.28;26.13;;;10.50;21.30;;;;;;4993199;28;20443;-72
2022/03/25 00:46:10;;;;;;;45.05;25.15;;;10.60;21.20;;;;;;4993348;28;20201;-72
2022/03/25 00:48:37;;;;;;;50.60;25.83;;;10.30;21.70;;;;;;4994232;28;20205;-73
2022/03/25 00:51:03;;;;;;;47.55;24.35;;;10.60;21.00;;;;;;5005668;28;20266;-74
2022/03/25 00:53:28;;;;;;;50.53;26.10;;;10.80;20.40;;;;;;5008657;28;20197;-73
2022/03/25 00:55:54;;;;;;;48.47;25.07;;;10.80;20.50;;;;;;5011715;28;20587;-72
2022/03/25 00:58:21;;;;;;;43.50;24.17;;;10.50;21.80;;;;;;5012639;28;20617;-72
2022/03/25 01:00:47;;;;;;;46.70;25.40;;;10.00;23.10;;;;;;4999407;28;20186;-72
2022/03/25 01:03:13;;;;;;;47.37;26.57;;;9.90;24.30;;;;;;5012431;28;20190;-72
2022/03/25 01:05:39;;;;;;;47.42;25.65;;;9.80;23.60;;;;;;5002608;28;20548;-72
2022/03/25 01:08:07;;;;;;;48.30;25.23;;;9.70;23.80;;;;;;5025941;23;20810;-73
2022/03/25 01:10:34;;;;;;;45.72;25.80;;;9.80;23.90;;;;;;5029775;28;21124;-71
2022/03/25 01:12:59;;;;;;;48.20;26.33;;;9.60;25.00;;;;;;5020945;28;20203;-70
2022/03/25 01:15:26;;;;;;;51.43;26.00;;;9.50;25.20;;;;;;5012094;28;20543;-72
2022/03/25 01:17:52;;;;;;;48.70;25.30;;;9.40;25.80;;;;;;5030280;28;20192;-70
2022/03/25 01:20:18;;;;;;;45.73;24.10;;;9.70;24.10;;;;;;5051882;28;20224;-70
2022/03/25 01:22:44;;;;;;;43.00;24.53;;;9.60;24.80;;;;;;5049916;28;20700;-70
2022/03/25 01:25:10;;;;;;;42.95;23.58;;;9.60;24.90;;;;;;5051523;28;20173;-72
2022/03/25 01:27:36;;;;;;;46.10;25.73;;;9.80;23.50;;;;;;5034855;28;20280;-70
2022/03/25 01:30:03;;;;;;;48.08;24.52;;;9.90;23.30;;;;;;5049941;28;20190;-72
2022/03/25 01:32:28;;;;;;;48.85;24.20;;;9.80;23.50;;;;;;5048568;28;20191;-70
2022/03/25 01:34:54;;;;;;;42.90;25.20;;;9.90;23.70;;;;;;5050956;28;20181;-70
2022/03/25 01:37:20;;;;;;;51.27;24.27;;;9.60;24.30;;;;;;5051575;28;20263;-71
2022/03/25 01:39:46;;;;;;;53.93;25.20;;;9.30;24.40;;;;;;5040962;28;20311;-72
2022/03/25 01:42:11;;;;;;;44.20;25.57;;;9.30;24.80;;;;;;5034940;28;20275;-70
2022/03/25 01:44:37;;;;;;;44.80;24.70;;;9.10;25.60;;;;;;5030924;28;20164;-70
2022/03/25 01:47:08;;;;;;;49.43;26.60;;;9.10;26.00;;;;;;5031689;28;20558;-70
2022/03/25 01:49:34;;;;;;;60.65;26.15;;;9.20;26.20;;;;;;5032630;28;20424;-70
2022/03/25 01:52:01;;;;;;;57.53;27.10;;;9.20;25.60;;;;;;5032800;28;20181;-68
2022/03/25 01:54:31;;;;;;;50.22;27.33;;;9.20;25.90;;;;;;5031154;28;20165;-69
2022/03/25 01:57:06;;;;;;;55.17;29.35;;;9.50;24.40;;;;;;5030083;28;20204;-69
2022/03/25 01:59:33;;;;;;;59.22;31.60;;;9.60;24.60;;;;;;5031207;28;20188;-70
2022/03/25 02:02:01;;;;;;;60.70;32.63;;;9.60;24.00;;;;;;5048305;28;20187;-71
2022/03/25 02:04:27;;;;;;;57.17;31.50;;;9.60;24.00;;;;;;5050662;28;20173;-70
2022/03/25 02:06:53;;;;;;;61.07;31.40;;;9.60;25.20;;;;;;5051104;28;20206;-71
2022/03/25 02:09:19;;;;;;;60.17;30.50;;;9.40;24.60;;;;;;5051181;28;20416;-70
2022/03/25 02:11:45;;;;;;;50.93;29.73;;;9.40;25.00;;;;;;5047564;28;20446;-71
2022/03/25 02:14:11;;;;;;;61.72;32.85;;;9.30;24.90;;;;;;5050402;28;20484;-68
2022/03/25 02:16:42;;;;;;;57.50;30.48;;;9.00;25.80;;;;;;5050938;28;20176;-68
2022/03/25 02:19:10;;;;;;;53.72;30.50;;;9.30;24.60;;;;;;5051281;28;20191;-68
2022/03/25 02:21:41;;;;;;;55.75;30.20;;;9.50;24.00;;;;;;5043723;28;20185;-69
2022/03/25 02:24:08;;;;;;;56.95;29.30;;;9.40;24.60;;;;;;5032140;28;20185;-68
2022/03/25 02:26:35;;;;;;;53.55;28.83;;;9.60;23.90;;;;;;5030854;28;20593;-68
2022/03/25 02:29:00;;;;;;;52.33;30.00;;;9.50;23.90;;;;;;5031229;28;20639;-68
2022/03/25 02:31:27;;;;;;;60.20;28.40;;;9.60;24.10;;;;;;5031155;28;20191;-68
2022/03/25 02:33:58;;;;;;;56.40;28.70;;;9.10;25.10;;;;;;5047580;28;20233;-68
2022/03/25 02:36:24;;;;;;;52.15;27.80;;;9.20;25.10;;;;;;5045982;28;20250;-68
2022/03/25 02:38:50;;;;;;;56.63;29.30;;;9.20;24.40;;;;;;5031612;28;20212;-68
2022/03/25 02:41:15;;;;;;;52.27;28.90;;;9.20;25.60;;;;;;5030892;28;20176;-69
2022/03/25 02:43:41;;;;;;;57.30;29.73;;;9.00;25.60;;;;;;5032881;28;20168;-68
2022/03/25 02:46:07;;;;;;;57.77;28.17;;;9.10;25.10;;;;;;5050619;28;20164;-68
2022/03/25 02:48:33;;;;;;;51.73;28.20;;;9.20;24.90;;;;;;5037294;28;20204;-71
2022/03/25 02:50:59;;;;;;;56.80;26.92;;;9.30;24.70;;;;;;5037672;28;20187;-70
2022/03/25 02:53:24;;;;;;;47.63;28.93;;;9.20;24.50;;;;;;5049254;28;20184;-70
2022/03/25 02:55:50;;;;;;;53.37;29.00;;;8.90;26.00;;;;;;5047996;28;20518;-70
2022/03/25 02:58:17;;;;;;;50.23;28.10;;;8.70;26.70;;;;;;5053030;28;20218;-70
2022/03/25 03:00:43;;;;;;;49.70;28.52;;;8.60;26.70;;;;;;5048245;28;20465;-70
2022/03/25 03:03:09;;;;;;;58.27;28.60;;;8.50;26.00;;;;;;5038230;28;20552;-70
2022/03/25 03:05:34;;;;;;;58.63;29.20;;;8.20;27.40;;;;;;5038138;28;20196;-70
2022/03/25 03:08:00;;;;;;;54.13;29.67;;;8.10;27.60;;;;;;5030675;28;20215;-69
2022/03/25 03:10:26;;;;;;;51.50;27.93;;;8.10;28.20;;;;;;5030626;28;20263;-70
2022/03/25 03:12:52;;;;;;;63.10;28.60;;;8.10;27.50;;;;;;5031708;28;20208;-71
2022/03/25 03:15:19;;;;;;;51.40;28.70;;;8.20;27.60;;;;;;5047270;28;20484;-70
2022/03/25 03:17:46;;;;;;;56.78;27.58;;;8.00;27.90;;;;;;5050444;28;20202;-70
2022/03/25 03:20:13;;;;;;;52.83;27.17;;;8.00;27.60;;;;;;5050439;28;20231;-70
2022/03/25 03:22:39;;;;;;;50.50;25.98;;;8.00;27.60;;;;;;5048570;28;20540;-70
2022/03/25 03:25:05;;;;;;;50.00;24.57;;;8.00;27.80;;;;;;5042971;28;20216;-69
2022/03/25 03:27:31;;;;;;;52.33;24.88;;;8.00;27.50;;;;;;5034070;28;20698;-70
2022/03/25 03:29:58;;;;;;;40.17;22.80;;;8.00;28.30;;;;;;5033996;28;20217;-70
2022/03/25 03:32:25;;;;;;;50.45;23.13;;;8.30;27.30;;;;;;5033902;28;20181;-70
2022/03/25 03:34:53;;;;;;;41.00;21.98;;;8.40;27.30;;;;;;5045217;28;20180;-70
2022/03/25 03:37:19;;;;;;;39.33;22.33;;;8.40;26.90;;;;;;5033971;28;20733;-69
2022/03/25 03:39:45;;;;;;;45.33;24.10;;;8.60;26.80;;;;;;5034187;28;20284;-70
2022/03/25 03:42:10;;;;;;;41.53;23.33;;;8.30;27.20;;;;;;5053029;28;20170;-70
2022/03/25 03:44:36;;;;;;;45.30;23.40;;;8.20;27.70;;;;;;5053489;28;20172;-70
2022/03/25 03:47:06;;;;;;;41.53;22.90;;;8.40;26.90;;;;;;5051806;28;20200;-70
2022/03/25 03:49:35;;;;;;;45.25;24.13;;;8.30;26.40;;;;;;5053716;28;20679;-70
2022/03/25 03:52:02;;;;;;;48.80;23.00;;;8.30;27.20;;;;;;5050076;28;20176;-69
2022/03/25 03:54:28;;;;;;;45.80;23.65;;;8.10;27.10;;;;;;5033462;28;20184;-70
2022/03/25 03:56:54;;;;;;;43.03;23.50;;;7.70;26.80;;;;;;5041671;28;20572;-70
2022/03/25 03:59:20;;;;;;;46.05;23.48;;;7.10;28.20;;;;;;5053076;28;20218;-70
2022/03/25 04:01:45;;;;;;;49.10;27.27;;;6.20;29.40;;;;;;5051855;28;20184;-69
2022/03/25 04:04:12;;;;;;;50.73;26.90;;;6.60;29.40;;;;;;5053082;28;20221;-71
2022/03/25 04:06:38;;;;;;;55.15;26.30;;;6.70;28.90;;;;;;5051984;28;20255;-70
2022/03/25 04:09:03;;;;;;;47.17;24.80;;;6.70;28.80;;;;;;5033205;28;20259;-70
2022/03/25 04:11:29;;;;;;;60.23;26.67;;;6.50;28.00;;;;;;5034382;28;20407;-70
2022/03/25 04:13:55;;;;;;;59.53;25.97;;;6.70;28.20;;;;;;5052720;28;20176;-70
2022/03/25 04:16:22;;;;;;;51.37;27.17;;;6.90;27.70;;;;;;5053263;28;20546;-70
2022/03/25 04:18:48;;;;;;;50.55;26.75;;;7.10;27.60;;;;;;5037253;28;22058;-70
2022/03/25 04:21:13;;;;;;;51.08;26.00;;;7.30;28.20;;;;;;5033154;28;20181;-70
2022/03/25 04:23:39;;;;;;;60.53;28.03;;;7.20;28.40;;;;;;5046263;28;20203;-70
2022/03/25 04:26:05;;;;;;;60.23;26.90;;;7.30;28.90;;;;;;5052833;28;20230;-70
2022/03/25 04:28:31;;;;;;;63.27;26.80;;;7.30;28.40;;;;;;5040144;28;20683;-69
2022/03/25 04:30:56;;;;;;;48.83;24.77;;;7.30;28.10;;;;;;5032667;28;20825;-70
2022/03/25 04:33:22;;;;;;;49.70;25.50;;;7.60;27.90;;;;;;5038355;28;20411;-70
2022/03/25 04:35:48;;;;;;;46.73;24.83;;;7.40;27.10;;;;;;5051928;28;20741;-70
2022/03/25 04:38:15;;;;;;;51.97;24.27;;;7.40;27.90;;;;;;5048036;28;20683;-70
2022/03/25 04:40:41;;;;;;;43.05;23.25;;;7.20;27.90;;;;;;5032451;28;20188;-69
2022/03/25 04:43:07;;;;;;;45.58;24.33;;;7.20;28.10;;;;;;5032597;28;20234;-69
2022/03/25 04:45:33;;;;;;;53.38;24.80;;;7.20;28.30;;;;;;5050628;28;20245;-70
2022/03/25 04:48:00;;;;;;;49.30;25.00;;;7.10;28.20;;;;;;5052594;28;20199;-70
2022/03/25 04:50:26;;;;;;;42.00;22.90;;;7.30;28.20;;;;;;5034896;28;20245;-69
2022/03/25 04:52:52;;;;;;;40.33;22.88;;;7.40;28.40;;;;;;5032627;28;20184;-70
2022/03/25 04:55:18;;;;;;;43.30;23.23;;;7.30;28.30;;;;;;5042868;28;20180;-70
2022/03/25 04:57:44;;;;;;;46.77;24.33;;;7.70;26.70;;;;;;5049476;28;20192;-70
2022/03/25 05:00:11;;;;;;;49.78;23.17;;;7.90;25.90;;;;;;5038674;28;20454;-71
2022/03/25 05:02:37;;;;;;;54.95;24.42;;;7.80;27.40;;;;;;5052252;28;20777;-70
2022/03/25 05:05:03;;;;;;;46.63;25.37;;;7.70;26.60;;;;;;5050092;28;20260;-70
2022/03/25 05:07:29;;;;;;;48.00;23.15;;;7.60;27.10;;;;;;5052122;28;20458;-70
2022/03/25 05:09:59;;;;;;;43.97;23.63;;;7.50;27.40;;;;;;5049778;28;20192;-70
2022/03/25 05:12:26;;;;;;;47.20;24.98;;;7.40;27.00;;;;;;5032015;28;20252;-70
2022/03/25 05:14:52;;;;;;;58.35;24.25;;;7.30;27.20;;;;;;5031800;28;20185;-70
2022/03/25 05:17:18;;;;;;;48.70;26.27;;;7.30;27.10;;;;;;5043948;28;21040;-71
2022/03/25 05:19:44;;;;;;;61.70;26.77;;;7.20;27.50;;;;;;5034430;28;20196;-70
2022/03/25 05:22:09;;;;;;;50.40;24.87;;;7.20;27.60;;;;;;5051706;28;20255;-71
2022/03/25 05:24:35;;;;;;;49.80;27.00;;;7.10;27.30;;;;;;5050726;28;20170;-70
2022/03/25 05:27:02;;;;;;;61.00;26.80;;;7.20;28.00;;;;;;5049778;28;20500;-71
2022/03/25 05:29:28;;;;;;;48.08;25.83;;;7.50;27.50;;;;;;5050236;28;20521;-71
2022/03/25 05:31:54;;;;;;;60.63;25.13;;;7.40;27.00;;;;;;5037621;28;20644;-69
2022/03/25 05:34:20;;;;;;;55.75;26.15;;;7.90;28.60;;;;;;5031610;28;20640;-70
2022/03/25 05:36:46;;;;;;;55.90;25.93;;;7.30;27.80;;;;;;5031927;28;20184;-70
2022/03/25 05:39:14;;;;;;;48.20;26.10;;;7.20;28.10;;;;;;5045080;28;20199;-70
2022/03/25 05:41:41;;;;;;;50.92;25.10;;;7.00;28.90;;;;;;5049557;28;20655;-68
2022/03/25 05:44:06;;;;;;;48.67;24.17;;;7.20;28.30;;;;;;5051201;28;20280;-70
2022/03/25 05:46:34;;;;;;;45.30;25.20;;;7.20;29.10;;;;;;5051330;28;20203;-70
2022/03/25 05:48:59;;;;;;;48.90;25.15;;;7.50;28.50;;;;;;5049602;28;20172;-71
2022/03/25 05:51:25;;;;;;;47.40;26.27;;;7.60;27.00;;;;;;5050399;28;20210;-71
2022/03/25 05:53:50;;;;;;;52.90;25.60;;;7.50;27.80;;;;;;5031570;28;20184;-70
2022/03/25 05:56:16;;;;;;;51.20;26.90;;;7.50;27.70;;;;;;5031310;28;20171;-71
2022/03/25 05:58:41;;;;;;;55.97;24.90;;;7.50;28.10;;;;;;5035746;28;20191;-70
2022/03/25 06:01:07;;;;;;;61.43;25.80;;;7.30;27.30;;;;;;5051265;28;20204;-71
2022/03/25 06:03:33;;;;;;;57.23;26.20;;;7.20;27.40;;;;;;5048995;28;20258;-70
2022/03/25 06:06:05;;;;;;;60.42;27.20;;;7.30;27.30;;;;;;5036706;28;20506;-70
2022/03/25 06:08:31;;;;;;;60.83;28.27;;;7.40;27.30;;;;;;5030790;28;20299;-70
2022/03/25 06:10:59;;;;;;;63.83;26.90;;;6.30;26.50;;;;;;5032214;28;20283;-71
2022/03/25 06:13:28;;;;;;;55.70;27.52;;;7.30;27.10;;;;;;5043427;28;20534;-70
2022/03/25 06:15:55;;;;;;;53.95;28.30;;;7.30;27.20;;;;;;5035705;28;20216;-71
2022/03/25 06:18:21;;;;;;;55.42;25.98;;;7.40;27.10;;;;;;5035298;28;20705;-71
2022/03/25 06:20:47;;;;;;;56.47;27.33;;;7.30;27.10;;;;;;5048815;28;20212;-71
2022/03/25 06:23:13;;;;;;;57.15;27.88;;;7.40;27.10;;;;;;5050676;28;20244;-70
2022/03/25 06:25:39;;;;;;;56.07;26.33;;;7.40;27.20;;;;;;5049567;28;20651;-71
2022/03/25 06:28:06;;;;;;;59.50;25.95;;;7.60;26.80;;;;;;5051036;28;20238;-71
2022/03/25 06:30:36;;;;;;;67.70;27.70;;;7.80;26.80;;;;;;5046303;28;20195;-70
2022/03/25 06:33:04;;;;;;;61.80;27.73;;;7.90;27.10;;;;;;5031001;28;20195;-70
2022/03/25 06:35:30;;;;;;;65.25;28.90;;;8.00;26.50;;;;;;5031952;28;20195;-70
2022/03/25 06:37:56;;;;;;;63.90;27.90;;;7.70;26.20;;;;;;5037021;28;20211;-71
2022/03/25 06:40:22;;;;;;;72.88;27.73;;;7.60;26.80;;;;;;5048026;28;20265;-69
2022/03/25 06:42:49;;;;;;;67.18;29.10;;;7.70;26.70;;;;;;5031029;28;20569;-70
2022/03/25 06:45:17;;;;;;;63.08;26.58;;;7.80;27.10;;;;;;5035406;28;20191;-70
2022/03/25 06:47:43;;;;;;;69.25;29.00;;;7.90;26.30;;;;;;5046131;28;20277;-70
2022/03/25 06:50:10;;;;;;;67.07;29.35;;;7.90;26.70;;;;;;5030822;28;20259;-71
2022/03/25 06:52:37;;;;;;;61.72;31.10;;;8.20;26.10;;;;;;5030818;28;20176;-70
2022/03/25 06:55:03;;;;;;;69.97;31.15;;;8.00;27.00;;;;;;5030369;28;20176;-71
2022/03/25 06:57:29;;;;;;;62.88;29.80;;;8.30;26.50;;;;;;5032272;28;20203;-71
2022/03/25 06:59:55;;;;;;;55.38;28.27;;;8.60;25.70;;;;;;5033242;28;20205;-70
2022/03/25 07:02:21;;;;;;;52.87;28.00;;;8.60;25.60;;;;;;5039328;28;20671;-71
2022/03/25 07:04:47;;;;;;;57.70;27.50;;;8.70;25.60;;;;;;5046549;28;20446;-71
2022/03/25 07:07:18;;;;;;;59.70;28.43;;;8.80;25.40;;;;;;5034114;28;20542;-70
2022/03/25 07:09:43;;;;;;;55.90;28.23;;;9.10;24.90;;;;;;5051993;28;20164;-71
2022/03/25 07:12:10;;;;;;;54.83;27.30;;;8.90;25.00;;;;;;5054314;28;20260;-71
2022/03/25 07:14:35;;;;;;;64.53;28.58;;;9.70;23.60;;;;;;5036817;28;20194;-71
2022/03/25 07:17:01;;;;;;;64.17;27.67;;;9.80;24.40;;;;;;5034077;28;20283;-70
2022/03/25 07:19:27;;;;;;;53.97;27.80;;;9.80;23.80;;;;;;5035119;28;20239;-70
2022/03/25 07:21:53;;;;;;;51.88;28.30;;;9.90;23.10;;;;;;5034163;28;20176;-70
2022/03/25 07:24:20;;;;;;;45.47;26.43;;;10.10;23.50;;;;;;5033851;28;20175;-71
2022/03/25 07:26:45;;;;;;;52.55;28.42;;;10.20;22.40;;;;;;5047400;28;20184;-70
2022/03/25 07:29:11;;;;;;;57.37;27.33;;;10.40;21.90;;;;;;5051080;28;20183;-71
2022/03/25 07:31:38;;;;;;;54.33;27.43;;;10.40;22.10;;;;;;5052842;28;20197;-71
2022/03/25 07:34:03;;;;;;;49.25;27.33;;;10.30;22.90;;;;;;5050412;28;20186;-71
2022/03/25 07:36:29;;;;;;;51.60;28.80;;;10.40;22.10;;;;;;5053787;28;20646;-70
2022/03/25 07:38:55;;;;;;;58.93;29.70;;;10.50;22.20;;;;;;5053727;28;22200;-70
2022/03/25 07:41:21;;;;;;;62.67;29.10;;;10.60;21.80;;;;;;5036445;28;20990;-71
2022/03/25 07:43:47;;;;;;;63.10;29.07;;;10.70;21.60;;;;;;5033738;28;20172;-71
2022/03/25 07:46:13;;;;;;;51.67;28.27;;;10.40;21.80;;;;;;5049878;28;20186;-71
2022/03/25 07:48:39;;;;;;;73.63;30.00;;;10.40;21.60;;;;;;5053693;28;20271;-71
2022/03/25 07:51:05;;;;;;;56.23;28.53;;;10.90;21.80;;;;;;5051746;28;20499;-71
2022/03/25 07:53:32;;;;;;;57.23;28.43;;;10.90;20.70;;;;;;5055131;28;20441;-71
2022/03/25 07:55:58;;;;;;;54.80;27.87;;;10.60;21.40;;;;;;5052885;28;20449;-71
2022/03/25 07:58:25;;;;;;;63.50;27.77;;;10.40;22.20;;;;;;5053542;28;20891;-71
2022/03/25 08:00:51;;;;;;;52.57;29.77;;;10.30;22.00;;;;;;5049803;28;20567;-71
2022/03/25 08:03:18;;;;;;;58.73;29.10;;;10.20;21.80;;;;;;5033039;28;20422;-71
2022/03/25 08:05:45;;;;;;;56.53;28.70;;;10.40;21.70;;;;;;5035223;28;20421;-71
2022/03/25 08:08:11;;;;;;;55.67;29.53;;;10.60;21.50;;;;;;5053320;28;20810;-73
2022/03/25 08:10:39;;;;;;;55.50;29.80;;;10.90;21.50;;;;;;5051779;28;20430;-74
2022/03/25 08:13:05;;;;;;;56.40;29.93;;;10.50;21.70;;;;;;5038195;28;20184;-74
2022/03/25 08:15:35;;;;;;;55.27;29.10;;;10.40;22.10;;;;;;5050945;28;20423;-74
2022/03/25 08:18:04;;;;;;;53.93;30.43;;;10.30;21.80;;;;;;5047894;28;20489;-74
2022/03/25 08:20:39;;;;;;;60.40;31.17;;;10.30;22.20;;;;;;5040941;28;20988;-74
2022/03/25 08:29:01;;;;;;;58.47;30.40;;;10.70;21.90;;;;;;5043001;28;20980;-74
2022/03/25 08:31:28;;;;;;;57.90;31.40;;;10.60;22.40;;;;;;5046685;28;20872;-75
2022/03/25 08:33:54;;;;;;;68.00;30.07;;;11.60;21.00;;;;;;5051788;28;20414;-75
2022/03/25 08:36:20;;;;;;;63.50;30.70;;;11.70;20.30;;;;;;5038486;28;20426;-74
2022/03/25 08:38:46;;;;;;;69.33;31.30;;;11.70;20.70;;;;;;5035172;28;21025;-75
2022/03/25 08:41:15;;;;;;;61.80;31.67;;;11.30;21.30;;;;;;5032039;28;20439;-75
2022/03/25 08:43:41;;;;;;;57.63;30.73;;;11.90;21.00;;;;;;5031905;28;20408;-75
2022/03/25 08:46:07;;;;;;;56.97;31.33;;;12.50;20.10;;;;;;5047878;28;20434;-77
2022/03/25 08:48:34;;;;;;;58.27;30.70;;;13.10;19.10;;;;;;5050668;28;20191;-74
2022/03/25 08:51:00;;;;;;;65.23;29.53;;;12.90;19.00;;;;;;5044382;28;20439;-75
2022/03/25 08:53:26;;;;;;;60.40;29.63;;;12.90;18.80;;;;;;5042011;28;20431;-76
2022/03/25 08:55:51;;;;;;;53.50;30.23;;;13.50;17.80;;;;;;5044024;28;20945;-74
2022/03/25 08:58:17;;;;;;;60.87;29.43;;;13.80;18.00;;;;;;5052334;28;20225;-74
2022/03/25 09:00:43;;;;;;;67.07;29.63;;;13.90;18.10;;;;;;5045333;28;20209;-75
2022/03/25 09:03:09;;;;;;;56.87;30.57;;;14.40;17.30;;;;;;5057921;28;20272;-75
2022/03/25 09:05:34;;;;;;;58.93;30.30;;;14.00;18.00;;;;;;5040887;28;20186;-75
2022/03/25 09:08:00;;;;;;;51.10;28.90;;;13.20;19.20;;;;;;5049851;28;20528;-75
2022/03/25 09:10:26;;;;;;;50.97;29.13;;;12.60;19.70;;;;;;5050612;28;20519;-75
2022/03/25 09:12:52;;;;;;;55.90;30.00;;;12.70;19.90;;;;;;5040666;28;20437;-74
2022/03/25 09:15:17;;;;;;;57.87;30.20;;;12.60;20.50;;;;;;5033515;28;20188;-75
2022/03/25 09:17:45;;;;;;;53.87;28.63;;;13.40;19.10;;;;;;5052280;28;20198;-75
2022/03/25 09:20:11;;;;;;;53.93;27.83;;;13.30;18.70;;;;;;5052060;28;20233;-77
2022/03/25 09:22:37;;;;;;;82.50;32.77;;;12.80;19.70;;;;;;5040959;28;20853;-76
2022/03/25 09:25:04;;;;;;;53.40;30.30;;;13.40;18.90;;;;;;5034359;28;20442;-75
2022/03/25 09:27:30;;;;;;;61.13;28.53;;;13.70;18.50;;;;;;5032823;28;20196;-73
2022/03/25 09:29:56;;;;;;;60.47;31.60;;;14.50;17.70;;;;;;5041614;28;20427;-76
2022/03/25 09:32:22;;;;;;;65.13;31.40;;;14.20;17.40;;;;;;5033389;28;20186;-74
2022/03/25 09:37:42;;;;;;;65.83;33.40;;;14.50;17.00;;;;;;5033689;28;20293;-74
2022/03/25 09:40:28;;;;;;;64.47;33.37;;;15.30;16.90;;;;;;5045913;28;20493;-74
2022/03/25 09:42:57;;;;;;;63.63;33.60;;;16.10;16.00;;;;;;5048028;28;20938;-75
2022/03/25 09:45:24;;;;;;;67.63;33.93;;;16.40;16.10;;;;;;5032264;28;20420;-74
2022/03/25 09:47:50;;;;;;;73.90;34.77;;;15.20;15.00;;;;;;5045459;28;20793;-74
2022/03/25 09:50:21;;;;;;;72.17;35.97;;;14.50;15.90;;;;;;5051135;28;20424;-76
2022/03/25 09:52:47;;;;;;;71.93;35.40;;;14.90;15.50;;;;;;5035972;28;20777;-75
2022/03/25 09:55:13;;;;;;;60.90;33.10;;;15.90;14.50;;;;;;5043851;28;20454;-75
2022/03/25 09:57:40;;;;;;;64.60;34.87;;;15.10;15.40;;;;;;5036703;28;20458;-74
2022/03/25 10:00:08;;;;;;;60.70;34.60;;;15.20;15.70;;;;;;5043562;28;20473;-76
2022/03/25 10:02:34;;;;;;;66.00;34.00;;;16.00;14.50;;;;;;5049610;28;20420;-75
2022/03/25 10:05:00;;;;;;;58.97;32.90;;;15.80;15.50;;;;;;5045385;28;20423;-74
2022/03/25 10:07:34;;;;;;;59.37;33.60;;;16.40;15.80;;;;;;5031652;28;20223;-74
2022/03/25 10:10:06;;;;;;;75.40;35.47;;;16.80;14.60;;;;;;5047754;28;20578;-74
2022/03/25 10:12:33;;;;;;;58.90;31.93;;;16.80;15.50;;;;;;5049800;28;20427;-74
2022/03/25 10:15:22;;;;;;;61.90;32.67;;;17.00;14.90;;;;;;5047783;28;20426;-74
2022/03/25 10:17:50;;;;;;;59.97;34.10;;;17.10;13.10;;;;;;5044103;28;20455;-72
2022/03/25 10:20:17;;;;;;;63.13;33.37;;;17.60;14.70;;;;;;5031842;28;20450;-77
2022/03/25 10:22:59;;;;;;;64.13;32.33;;;18.10;12.20;;;;;;5043691;28;20547;-74
2022/03/25 10:25:53;;;;;;;66.10;31.17;;;17.80;11.40;;;;;;5038309;28;20517;-74
2022/03/25 10:28:44;;;;;;;63.90;31.17;;;17.80;10.00;;;;;;5030759;28;20461;-74
2022/03/25 10:31:16;;;;;;;63.53;32.60;;;16.90;11.60;;;;;;5031520;28;20643;-73
2022/03/25 10:33:49;;;;;;;57.33;31.83;;;16.20;12.10;;;;;;5040198;28;20871;-74
2022/03/25 10:36:19;;;;;;;53.50;32.30;;;17.00;12.70;;;;;;5046222;28;20774;-73
2022/03/25 10:38:54;;;;;;;63.70;31.23;;;18.40;12.30;;;;;;5035034;28;20899;-73
2022/03/25 10:41:42;;;;;;;55.03;30.40;;;19.00;12.50;;;;;;5033968;28;20425;-74
2022/03/25 10:44:10;;;;;;;52.30;29.43;;;19.80;13.40;;;;;;5034507;28;20481;-73
2022/03/25 10:46:42;;;;;;;57.30;31.87;;;20.00;11.80;;;;;;5034665;28;20412;-74
2022/03/25 10:49:16;;;;;;;60.50;32.17;;;19.70;12.00;;;;;;5050265;28;20440;-74
2022/03/25 10:51:44;;;;;;;56.50;30.97;;;20.00;11.80;;;;;;5043318;23;20515;-72
2022/03/25 10:54:12;;;;;;;51.73;30.13;;;20.50;11.30;;;;;;4980221;28;20438;-72
2022/03/25 10:56:46;;;;;;;63.10;33.10;;;21.20;10.10;;;;;;4975541;28;20456;-72
2022/03/25 10:59:29;;;;;;;56.70;33.10;;;21.40;11.10;;;;;;4986145;28;20467;-72
2022/03/25 11:01:56;;;;;;;63.40;32.90;;;21.90;9.10;;;;;;4995446;28;20431;-72
2022/03/25 11:04:23;;;;;;;59.77;33.03;;;21.50;8.50;;;;;;4993540;28;20414;-72
2022/03/25 11:06:50;;;;;;;51.87;30.70;;;21.30;10.50;;;;;;4992961;28;20412;-72
2022/03/25 11:09:17;;;;;;;58.37;31.83;;;22.70;9.20;;;;;;4991651;28;20428;-73
2022/03/25 11:11:44;;;;;;;62.73;31.23;;;24.10;10.10;;;;;;4977176;28;20842;-73
2022/03/25 11:14:11;;;;;;;50.30;30.77;;;25.10;7.50;;;;;;4974127;28;20897;-72
2022/03/25 11:16:45;;;;;;;51.57;31.07;;;23.30;8.60;;;;;;4973895;28;20441;-73
2022/03/25 11:19:12;;;;;;;48.03;28.67;;;23.20;8.20;;;;;;4974023;28;20548;-72
2022/03/25 11:21:46;;;;;;;51.73;30.07;;;23.60;8.50;;;;;;4992970;28;20447;-72
2022/03/25 11:24:30;;;;;;;51.53;30.60;;;27.20;8.30;;;;;;4995121;28;20471;-72
2022/03/25 11:26:57;;;;;;;51.90;31.33;;;26.10;5.00;;;;;;4995092;28;20420;-73
2022/03/25 11:29:31;;;;;;;49.27;29.87;;;27.20;3.90;;;;;;4995121;28;20409;-74
2022/03/25 11:32:11;;;;;;;51.43;29.83;;;27.10;4.80;;;;;;4995364;28;20721;-73
2022/03/25 11:35:07;;;;;;;43.60;28.93;;;26.70;3.80;;;;;;4995151;28;20421;-73
2022/03/25 11:37:34;;;;;;;43.07;29.20;;;26.30;3.70;;;;;;4995031;28;20444;-73
2022/03/25 11:40:15;;;;;;;44.17;29.53;;;25.80;4.80;;;;;;4994876;28;20479;-73
2022/03/25 11:42:43;;;;;;;47.30;28.87;;;27.00;2.50;;;;;;4995359;28;20823;-73
2022/03/25 11:45:21;;;;;;;42.67;27.43;;;26.80;2.40;;;;;;4994777;28;20415;-73
2022/03/25 11:47:59;;;;;;;44.53;26.97;;;26.20;4.40;;;;;;4995075;28;20432;-73
2022/03/25 11:50:25;;;;;;;43.77;28.13;;;27.40;3.10;;;;;;4994695;28;20436;-73
2022/03/25 11:52:51;;;;;;;42.77;26.50;;;28.30;1.20;;;;;;4994964;28;20413;-73
2022/03/25 11:55:17;;;;;;;39.60;26.27;;;27.70;2.40;;;;;;4993525;28;20471;-73
2022/03/25 11:57:44;;;;;;;39.30;25.07;;;27.60;2.00;;;;;;4975384;28;20337;-73
2022/03/25 12:00:28;;;;;;;35.13;24.30;;;28.80;1.30;;;;;;4974960;28;20617;-72
2022/03/25 12:03:05;;;;;;;36.87;24.90;;;28.10;2.00;;;;;;4975221;28;20394;-72
2022/03/25 12:05:32;;;;;;;42.30;25.50;;;28.50;2.20;;;;;;4975164;28;20937;-72
2022/03/25 12:08:23;;;;;;;38.83;24.63;;;28.80;1.00;;;;;;4975212;28;20493;-72
2022/03/25 12:10:50;;;;;;;33.90;24.17;;;29.50;1.00;;;;;;4974834;28;20426;-72
2022/03/25 12:13:17;;;;;;;43.90;23.50;;;29.20;1.40;;;;;;4974704;28;20452;-72
2022/03/25 12:15:44;;;;;;;39.33;24.60;;;30.00;1.00;;;;;;4974877;28;20548;-73
2022/03/25 12:18:44;;;;;;;37.53;25.43;;;30.50;1.00;;;;;;4975948;28;20413;-73
2022/03/25 12:21:25;;;;;;;36.77;25.03;;;31.00;1.00;;;;;;4974780;28;20461;-73
2022/03/25 12:23:58;;;;;;;32.90;24.40;;;28.60;1.00;;;;;;4974740;28;20419;-73
2022/03/25 12:26:35;;;;;;;38.77;25.00;;;29.30;1.20;;;;;;4974192;28;20402;-73
2022/03/25 12:29:10;;;;;;;37.93;25.30;;;27.40;1.70;;;;;;4974932;28;20410;-73
2022/03/25 12:31:37;;;;;;;36.00;24.80;;;27.20;1.00;;;;;;4974883;28;20444;-73
2022/03/25 12:34:05;;;;;;;41.90;25.80;;;27.80;2.10;;;;;;4974037;28;20405;-73
2022/03/25 12:36:43;;;;;;;38.50;25.07;;;27.90;2.50;;;;;;4974559;28;20414;-73
2022/03/25 12:39:13;;;;;;;35.40;25.10;;;30.20;1.00;;;;;;4974834;28;20754;-73
2022/03/25 12:41:44;;;;;;;36.23;25.37;;;29.70;1.40;;;;;;4974529;28;20422;-73
2022/03/25 12:44:10;;;;;;;37.10;25.20;;;30.30;1.00;;;;;;4974354;28;20394;-73
2022/03/25 12:46:35;;;;;;;36.70;25.60;;;28.30;1.00;;;;;;4974155;28;20414;-73